Time;durP1;ratioP1;P1;durP2;ratioP2;P2;SDS_P1;SDS_P2;PMS_P1;PMS_P2;Temp;Humidity;BMP_temperature;BMP_pressure;BME280_temperature;BME280_humidity;BME280_pressure;Samples;Min_cycle;Max_cycle;Signal;HPM_P1;HPM_P2
2023/01/15 00:01:34;;;;;;;1.10;1.00;;;12.40;93.60;;;12.83;59.56;97532.41;4966465;28;119725;-78
2023/01/15 00:04:05;;;;;;;1.50;1.10;;;12.40;93.60;;;12.81;59.89;97540.28;4965184;28;119162;-78
2023/01/15 00:06:37;;;;;;;5.50;1.10;;;12.40;93.60;;;12.80;59.73;97527.56;4949464;28;123623;-75
2023/01/15 00:09:05;;;;;;;1.67;1.10;;;12.40;93.60;;;12.77;59.91;97508.91;4965250;28;123832;-79
2023/01/15 00:11:32;;;;;;;1.77;1.20;;;12.40;93.70;;;12.76;59.99;97507.31;4972733;28;118682;-75
2023/01/15 00:14:05;;;;;;;1.80;1.17;;;12.30;93.70;;;12.76;60.08;97490.66;4967987;28;118855;-78
2023/01/15 00:16:31;;;;;;;1.20;1.00;;;12.30;93.70;;;12.73;60.29;97494.13;4963526;28;123404;-74
2023/01/15 00:19:00;;;;;;;1.40;1.30;;;12.30;93.80;;;12.73;60.18;97491.38;4966277;28;123370;-74
2023/01/15 00:21:27;;;;;;;1.60;1.07;;;12.30;93.90;;;12.75;60.47;97491.03;4960430;28;120306;-74
2023/01/15 00:29:25;;;;;;;1.57;0.80;;;12.30;93.90;;;12.76;60.43;97487.91;4995334;28;123735;-76
2023/01/15 00:32:05;;;;;;;0.90;0.80;;;12.30;93.90;;;12.77;60.08;97475.63;4963310;28;119301;-77
2023/01/15 00:34:33;;;;;;;0.90;0.80;;;12.30;93.90;;;12.79;60.48;97487.19;4966594;28;119527;-75
2023/01/15 00:37:01;;;;;;;1.53;1.13;;;12.40;93.90;;;12.80;60.38;97486.00;4962534;28;125428;-74
2023/01/15 00:39:27;;;;;;;0.97;0.87;;;12.40;94.00;;;12.80;60.44;97474.91;4966070;28;124250;-74
2023/01/15 00:41:54;;;;;;;1.40;0.80;;;12.80;94.10;;;12.83;60.19;97456.75;4964597;28;119239;-72
2023/01/15 00:44:21;;;;;;;0.90;0.80;;;12.40;93.90;;;12.86;60.65;97455.25;4961792;28;119670;-73
2023/01/15 00:46:48;;;;;;;1.20;0.90;;;12.50;94.00;;;12.88;60.22;97436.28;4962510;28;123977;-73
2023/01/15 00:49:15;;;;;;;1.00;0.90;;;12.40;94.00;;;12.90;60.34;97445.06;4956347;28;124048;-74
2023/01/15 00:51:42;;;;;;;1.07;0.83;;;12.40;94.00;;;12.91;60.43;97438.34;4990000;28;118776;-76
2023/01/15 00:54:08;;;;;;;1.70;1.00;;;12.50;94.00;;;12.93;60.27;97444.31;4998752;28;118085;-76
2023/01/15 00:56:35;;;;;;;0.90;0.80;;;12.50;94.00;;;12.92;60.11;97431.63;4965290;28;124097;-73
2023/01/15 00:59:04;;;;;;;1.50;1.27;;;12.50;93.90;;;12.92;60.06;97426.06;4962519;28;122878;-76
2023/01/15 01:01:31;;;;;;;1.00;0.90;;;12.50;93.90;;;12.90;60.28;97418.13;4964763;28;119198;-75
2023/01/15 01:03:57;;;;;;;0.90;0.80;;;12.60;94.00;;;12.90;60.08;97409.00;4961526;28;119499;-76
2023/01/15 01:06:24;;;;;;;0.97;0.80;;;12.40;93.80;;;12.89;60.00;97416.50;4964799;28;124035;-75
2023/01/15 01:08:51;;;;;;;2.57;0.90;;;12.40;93.80;;;12.91;59.62;97407.84;4958880;28;122690;-75
2023/01/15 01:11:23;;;;;;;1.30;1.03;;;13.00;94.10;;;12.91;60.04;97413.38;4950603;28;120117;-76
2023/01/15 01:13:50;;;;;;;2.07;0.93;;;12.50;93.80;;;12.93;60.14;97411.84;4943593;28;120096;-75
2023/01/15 01:16:26;;;;;;;2.23;0.90;;;12.50;93.80;;;12.94;59.89;97404.34;4954588;28;125265;-75
2023/01/15 01:18:53;;;;;;;1.53;1.03;;;12.50;93.80;;;12.93;59.67;97403.53;4949155;28;124082;-75
2023/01/15 01:21:21;;;;;;;1.40;1.07;;;12.50;93.70;;;12.94;59.42;97409.88;4973118;28;119889;-76
2023/01/15 01:23:49;;;;;;;0.90;0.80;;;12.50;93.60;;;12.94;59.26;97412.66;4951070;28;119009;-74
2023/01/15 01:26:15;;;;;;;1.10;0.90;;;12.50;93.60;;;12.94;59.52;97396.03;4952546;28;124001;-74
2023/01/15 01:28:49;;;;;;;0.90;0.80;;;12.50;93.60;;;12.93;59.40;97400.75;4954158;28;123708;-76
2023/01/15 01:31:16;;;;;;;1.00;0.80;;;12.50;93.50;;;12.94;59.39;97407.09;4937927;28;119055;-76
2023/01/15 01:33:43;;;;;;;1.20;0.90;;;12.50;93.50;;;12.94;59.17;97399.59;4952103;28;118981;-76
2023/01/15 01:36:10;;;;;;;1.20;0.77;;;12.50;93.50;;;12.95;59.35;97405.94;4978506;28;124662;-76
2023/01/15 01:38:36;;;;;;;1.10;0.87;;;12.50;93.60;;;12.95;59.48;97417.03;4950993;28;123912;-75
2023/01/15 01:41:03;;;;;;;2.30;0.80;;;12.50;93.50;;;12.98;59.40;97410.78;4949878;28;119764;-75
2023/01/15 01:43:30;;;;;;;1.13;0.93;;;12.50;93.50;;;12.98;59.36;97402.47;4983040;28;118540;-75
2023/01/15 01:45:56;;;;;;;1.03;0.90;;;12.60;93.60;;;13.00;59.29;97389.03;4957834;28;124594;-75
2023/01/15 01:48:33;;;;;;;1.20;0.90;;;12.50;93.80;;;13.02;59.44;97384.72;4982259;28;123713;-75
2023/01/15 01:51:01;;;;;;;0.90;0.80;;;12.60;93.50;;;13.01;59.12;97385.91;4953740;28;119106;-76
2023/01/15 01:53:31;;;;;;;1.00;0.80;;;12.60;93.50;;;13.03;58.96;97380.00;5001426;28;118902;-75
2023/01/15 01:55:59;;;;;;;1.33;0.90;;;12.60;93.50;;;13.04;59.34;97373.28;4964284;28;124750;-75
2023/01/15 01:58:30;;;;;;;1.03;0.90;;;12.60;93.50;;;13.03;59.33;97375.25;4967742;28;123889;-75
2023/01/15 02:01:00;;;;;;;2.27;0.90;;;12.70;93.60;;;13.01;59.46;97363.72;4967400;28;120576;-75
2023/01/15 02:03:33;;;;;;;0.90;0.77;;;12.60;93.60;;;13.02;59.38;97370.06;4965880;28;119973;-75
2023/01/15 02:06:08;;;;;;;1.00;0.80;;;12.60;93.60;;;13.02;59.52;97359.75;4966394;28;123890;-75
2023/01/15 02:08:38;;;;;;;0.90;0.80;;;12.60;93.60;;;13.03;59.35;97355.03;4964800;28;123871;-75
2023/01/15 02:11:07;;;;;;;1.33;0.90;;;12.70;93.70;;;13.03;59.59;97361.38;4966232;28;119087;-75
2023/01/15 02:13:39;;;;;;;6.53;1.00;;;12.60;93.60;;;13.03;59.68;97350.28;4970608;28;118921;-75
2023/01/15 02:16:16;;;;;;;1.93;1.00;;;12.60;93.70;;;13.04;59.86;97345.53;4952222;28;122906;-75
2023/01/15 02:19:11;;;;;;;1.17;0.70;;;12.60;93.70;;;13.04;59.74;97345.53;4965640;28;124550;-75
2023/01/15 02:21:49;;;;;;;1.30;0.90;;;12.60;93.80;;;13.06;59.75;97329.34;4965552;28;119335;-75
2023/01/15 02:24:34;;;;;;;1.00;0.80;;;12.60;93.80;;;13.05;59.83;97336.06;4967145;28;119191;-75
2023/01/15 02:27:16;;;;;;;1.57;0.90;;;12.60;93.90;;;13.03;60.08;97332.88;4964762;28;123843;-76
2023/01/15 02:30:12;;;;;;;0.90;0.80;;;12.60;94.00;;;13.02;60.23;97342.34;4962053;28;123769;-75
2023/01/15 02:32:46;;;;;;;1.00;0.90;;;12.60;94.00;;;13.03;60.40;97328.13;4952252;28;118489;-75
2023/01/15 02:35:19;;;;;;;1.20;0.90;;;12.60;94.10;;;13.04;60.54;97328.91;4964567;28;119350;-75
2023/01/15 02:37:50;;;;;;;1.10;0.80;;;12.60;94.20;;;13.04;60.78;97323.38;4980206;28;123758;-75
2023/01/15 02:40:20;;;;;;;0.80;0.77;;;12.70;94.20;;;13.05;60.72;97322.19;4960382;28;123952;-75
2023/01/15 02:42:48;;;;;;;1.00;0.90;;;12.60;94.20;;;13.08;60.66;97323.44;4951707;28;118571;-75
2023/01/15 02:45:25;;;;;;;2.43;0.70;;;12.60;94.30;;;13.10;60.74;97332.19;4974163;28;118096;-75
2023/01/15 02:47:56;;;;;;;1.23;0.90;;;12.70;94.40;;;13.11;60.56;97331.84;4963868;28;123392;-74
2023/01/15 02:50:32;;;;;;;1.17;0.80;;;12.70;94.40;;;13.12;60.75;97325.13;4952953;28;123839;-74
2023/01/15 02:53:04;;;;;;;1.67;0.80;;;12.70;94.40;;;13.13;60.92;97326.72;4959330;28;121073;-75
2023/01/15 02:55:38;;;;;;;1.53;0.80;;;12.70;94.40;;;13.15;60.81;97323.59;4965699;28;119874;-75
2023/01/15 02:58:10;;;;;;;1.50;0.80;;;12.70;94.40;;;13.17;61.11;97344.22;4963690;28;123926;-75
2023/01/15 03:00:42;;;;;;;1.13;0.90;;;12.80;94.50;;;13.19;61.14;97308.63;4965130;28;122718;-73
2023/01/15 03:03:33;;;;;;;0.90;0.70;;;12.70;94.50;;;13.20;61.25;97332.41;4961456;28;119076;-74
2023/01/15 03:06:11;;;;;;;0.80;0.80;;;12.80;94.70;;;13.22;61.25;97332.84;4994084;28;119517;-74
2023/01/15 03:08:39;;;;;;;0.87;0.73;;;12.80;94.70;;;13.22;61.27;97318.97;4962357;28;124603;-75
2023/01/15 03:11:07;;;;;;;0.90;0.70;;;12.80;94.60;;;13.25;61.22;97314.69;4959993;28;124511;-74
2023/01/15 03:14:07;;;;;;;0.80;0.70;;;12.80;94.70;;;13.27;61.18;97312.34;4966541;28;120044;-74
2023/01/15 03:16:55;;;;;;;1.00;0.90;;;12.90;94.70;;;13.29;61.19;97312.78;4966299;28;119099;-74
2023/01/15 03:19:48;;;;;;;1.00;0.90;;;12.90;94.70;;;13.30;61.27;97308.03;4951159;28;123072;-74
2023/01/15 03:22:37;;;;;;;1.20;0.90;;;12.90;94.80;;;13.30;61.41;97291.41;4965691;28;123952;-74
2023/01/15 03:25:10;;;;;;;1.10;0.90;;;12.90;94.90;;;13.31;61.58;97293.03;4964708;28;118562;-74
2023/01/15 03:27:37;;;;;;;1.43;0.90;;;12.90;94.80;;;13.33;61.46;97307.31;4988747;28;119039;-74
2023/01/15 03:30:17;;;;;;;1.03;0.80;;;13.00;94.90;;;13.36;61.39;97303.81;4964093;28;123908;-75
2023/01/15 03:32:43;;;;;;;1.00;0.70;;;12.90;94.90;;;13.36;61.30;97285.19;4961554;28;124214;-74
2023/01/15 03:35:57;;;;;;;1.03;0.80;;;12.90;94.90;;;13.39;61.23;97289.22;4994214;28;119416;-74
2023/01/15 03:38:36;;;;;;;0.80;0.70;;;13.00;94.80;;;13.43;61.17;97278.97;4969341;28;119059;-74
2023/01/15 03:41:26;;;;;;;0.80;0.73;;;13.00;94.80;;;13.46;61.10;97278.25;4960327;28;124075;-74
2023/01/15 03:44:22;;;;;;;1.97;0.80;;;13.00;94.70;;;13.51;60.92;97275.16;4964211;28;123642;-75
2023/01/15 03:47:11;;;;;;;0.90;0.70;;;13.10;94.70;;;13.55;60.86;97270.47;4964657;28;120318;-74
2023/01/15 03:50:13;;;;;;;1.67;0.87;;;13.10;94.60;;;13.60;60.45;97272.94;4975725;28;119846;-74
2023/01/15 03:53:11;;;;;;;1.07;0.77;;;13.20;94.50;;;13.64;60.25;97279.34;4965404;28;123843;-74
2023/01/15 03:55:54;;;;;;;0.80;0.70;;;13.20;94.40;;;13.70;60.12;97285.38;4965537;28;123775;-74
2023/01/15 03:58:45;;;;;;;0.80;0.70;;;13.30;94.30;;;13.74;59.90;97266.03;4967782;28;119687;-74
2023/01/15 04:01:17;;;;;;;0.83;0.77;;;13.30;94.20;;;13.76;59.70;97292.25;4963810;28;119075;-74
2023/01/15 04:03:45;;;;;;;0.80;0.70;;;13.30;94.00;;;13.80;59.57;97286.75;4965340;28;123865;-76
2023/01/15 04:06:11;;;;;;;1.20;0.80;;;13.40;94.00;;;13.83;59.45;97267.38;4968541;28;123497;-74
2023/01/15 04:08:41;;;;;;;2.40;0.80;;;13.40;93.90;;;13.87;59.14;97270.22;4967057;28;119526;-74
2023/01/15 04:11:08;;;;;;;0.90;0.70;;;13.50;93.90;;;13.90;59.21;97263.91;4950936;28;118124;-74
2023/01/15 04:13:34;;;;;;;0.83;0.77;;;13.50;93.80;;;13.93;59.09;97263.16;4965234;28;123978;-75
2023/01/15 04:16:01;;;;;;;1.10;0.70;;;13.50;93.70;;;13.97;58.96;97257.66;4964478;28;123937;-75
2023/01/15 04:18:28;;;;;;;0.87;0.73;;;13.60;93.70;;;13.99;58.94;97261.66;4965910;28;119348;-74
2023/01/15 04:20:54;;;;;;;0.90;0.80;;;13.60;93.70;;;14.01;58.68;97267.66;4999296;28;117790;-75
2023/01/15 04:23:22;;;;;;;0.90;0.70;;;13.60;93.60;;;14.03;58.51;97254.22;4965495;28;124106;-73
2023/01/15 04:25:48;;;;;;;1.00;0.70;;;13.60;93.80;;;14.04;58.41;97228.03;4967041;28;123004;-74
2023/01/15 04:28:15;;;;;;;1.50;1.23;;;13.60;93.40;;;14.08;58.29;97236.44;4964755;28;119338;-74
2023/01/15 04:30:42;;;;;;;0.80;0.70;;;13.70;93.40;;;14.11;58.29;97233.69;4980574;28;119274;-74
2023/01/15 04:33:10;;;;;;;1.90;0.80;;;13.70;93.30;;;14.12;58.38;97248.38;4961900;28;123094;-75
2023/01/15 04:35:37;;;;;;;0.80;0.70;;;13.70;93.30;;;14.14;58.10;97241.28;4967235;28;123995;-74
2023/01/15 04:38:04;;;;;;;0.80;0.70;;;13.70;93.20;;;14.18;57.99;97237.75;4964649;28;120411;-75
2023/01/15 04:46:00;;;;;;;0.97;0.87;;;13.80;93.10;;;14.19;57.71;97231.03;4957267;28;124574;-74
2023/01/15 04:48:26;;;;;;;1.20;0.80;;;13.80;93.10;;;14.19;57.78;97231.84;4965571;28;119344;-74
2023/01/15 04:50:53;;;;;;;1.57;0.73;;;13.90;93.10;;;14.22;57.75;97241.41;4968001;28;119134;-74
2023/01/15 04:53:19;;;;;;;1.00;0.80;;;13.80;93.10;;;14.23;58.19;97238.22;4967159;28;123283;-75
2023/01/15 04:55:46;;;;;;;0.90;0.80;;;13.80;93.10;;;14.23;57.78;97251.31;4964506;28;125421;-75
2023/01/15 04:58:13;;;;;;;1.00;0.70;;;13.80;93.10;;;14.22;57.51;97246.94;4961385;28;119209;-75
2023/01/15 05:00:40;;;;;;;0.90;0.70;;;14.00;93.20;;;14.22;57.51;97239.41;4969194;28;119010;-75
2023/01/15 05:03:06;;;;;;;0.80;0.63;;;14.10;93.20;;;14.23;57.81;97218.00;4967633;28;124535;-74
2023/01/15 05:05:33;;;;;;;0.80;0.70;;;13.80;93.10;;;14.21;57.83;97234.22;4967941;28;123660;-74
2023/01/15 05:07:59;;;;;;;0.93;0.73;;;14.00;93.20;;;14.21;57.64;97237.00;4968080;28;119398;-74
2023/01/15 05:10:26;;;;;;;0.90;0.70;;;13.80;93.10;;;14.19;57.74;97226.28;4968457;28;119031;-75
2023/01/15 05:12:52;;;;;;;1.00;0.80;;;13.80;93.10;;;14.17;57.96;97236.16;4967787;28;124371;-74
2023/01/15 05:15:19;;;;;;;0.80;0.70;;;13.80;93.10;;;14.15;57.97;97237.31;4968347;28;123859;-74
2023/01/15 05:17:45;;;;;;;1.30;0.70;;;13.80;93.10;;;14.15;57.96;97251.19;4968091;28;119345;-75
2023/01/15 05:20:13;;;;;;;1.00;0.73;;;13.80;93.10;;;14.15;58.10;97258.75;4986644;28;117747;-74
2023/01/15 05:22:40;;;;;;;0.80;0.70;;;13.80;93.10;;;14.14;58.35;97280.16;4967955;28;124090;-74
2023/01/15 05:25:07;;;;;;;1.57;0.80;;;13.80;93.30;;;14.15;58.99;97308.75;4967383;28;124236;-74
2023/01/15 05:27:33;;;;;;;0.80;0.70;;;13.80;93.60;;;14.07;59.53;97296.72;4967579;28;120254;-74
2023/01/15 05:30:00;;;;;;;1.67;0.80;;;13.70;93.90;;;13.91;59.64;97326.59;4966619;28;119619;-74
2023/01/15 05:32:26;;;;;;;0.90;0.70;;;13.60;93.80;;;13.65;60.02;97333.69;4965493;28;124528;-73
2023/01/15 05:34:53;;;;;;;1.30;0.77;;;13.40;93.90;;;13.40;60.28;97335.19;4999825;28;125308;-74
2023/01/15 05:37:19;;;;;;;0.80;0.70;;;13.20;93.90;;;13.16;61.00;97356.47;4965449;28;119194;-74
2023/01/15 05:39:46;;;;;;;0.90;0.70;;;13.00;94.20;;;12.90;61.55;97353.56;4968145;28;119185;-74
2023/01/15 05:42:12;;;;;;;0.90;0.80;;;12.70;94.70;;;12.68;61.69;97353.09;4968706;28;124069;-74
2023/01/15 05:44:39;;;;;;;0.90;0.80;;;12.50;94.40;;;12.53;61.72;97365.03;4966758;28;123848;-74
2023/01/15 05:47:06;;;;;;;0.90;0.70;;;12.30;94.40;;;12.37;61.91;97376.91;4967354;28;119352;-74
2023/01/15 05:49:33;;;;;;;1.07;0.90;;;12.10;94.40;;;12.25;61.75;97365.13;4968622;28;119018;-74
2023/01/15 05:52:00;;;;;;;1.17;0.80;;;12.00;94.40;;;12.11;61.97;97368.38;4966902;28;124440;-74
2023/01/15 05:54:33;;;;;;;1.03;0.93;;;11.90;94.40;;;12.00;62.32;97370.06;4967496;28;124073;-74
2023/01/15 05:57:00;;;;;;;0.93;0.83;;;12.10;94.60;;;11.89;62.26;97369.78;4961228;28;119213;-74
2023/01/15 05:59:29;;;;;;;0.80;0.70;;;11.60;94.40;;;11.77;62.06;97390.03;4962203;28;119079;-74
2023/01/15 06:01:56;;;;;;;0.90;0.80;;;11.50;94.40;;;11.64;62.38;97383.75;4950623;28;124094;-74
2023/01/15 06:04:24;;;;;;;0.80;0.70;;;11.40;94.40;;;11.57;62.45;97391.06;4955068;28;123826;-74
2023/01/15 06:06:52;;;;;;;0.80;0.70;;;11.40;94.40;;;11.47;62.18;97379.34;4968307;28;119320;-74
2023/01/15 06:09:21;;;;;;;1.63;0.80;;;12.10;94.70;;;11.38;62.38;97373.16;4953636;28;118798;-73
2023/01/15 06:11:49;;;;;;;1.23;0.90;;;11.10;94.30;;;11.30;62.22;97387.94;4959722;28;124106;-74
2023/01/15 06:14:16;;;;;;;0.80;0.70;;;11.10;94.40;;;11.23;62.77;97384.97;4966906;28;124346;-74
2023/01/15 06:16:42;;;;;;;0.80;0.70;;;11.00;94.50;;;11.16;62.36;97382.03;4964792;28;120147;-74
2023/01/15 06:19:11;;;;;;;0.90;0.80;;;10.90;94.50;;;11.09;62.39;97381.81;4967277;28;120027;-74
2023/01/15 06:21:38;;;;;;;1.00;0.80;;;10.80;94.40;;;11.00;62.63;97395.78;4970718;28;123888;-74
2023/01/15 06:24:06;;;;;;;0.80;0.70;;;10.70;94.40;;;10.92;62.83;97405.81;4952357;28;122495;-74
2023/01/15 06:26:33;;;;;;;0.90;0.80;;;10.60;94.40;;;10.86;62.45;97407.19;4967516;28;119404;-74
2023/01/15 06:28:59;;;;;;;0.80;0.70;;;10.60;94.50;;;10.78;62.66;97402.63;4970288;28;118948;-74
2023/01/15 06:31:44;;;;;;;2.50;1.27;;;10.50;94.50;;;10.69;62.97;97424.03;4967758;28;123941;-74
2023/01/15 06:34:12;;;;;;;0.90;0.70;;;10.40;94.60;;;10.58;63.44;97407.91;4968174;28;123922;-74
2023/01/15 06:36:38;;;;;;;0.80;0.70;;;10.30;94.70;;;10.52;63.36;97433.38;4967897;28;119209;-75
2023/01/15 06:39:05;;;;;;;1.00;0.70;;;10.20;94.80;;;10.47;63.78;97437.16;4967389;28;119200;-74
2023/01/15 06:47:19;;;;;;;1.57;0.70;;;10.00;94.90;;;10.21;64.22;97470.59;4965846;28;120048;-75
2023/01/15 06:49:48;;;;;;;1.53;0.70;;;9.90;95.50;;;10.09;64.31;97468.59;4964558;28;118820;-76
2023/01/15 06:52:14;;;;;;;0.90;0.70;;;9.80;95.80;;;10.02;64.69;97471.13;4969233;28;124226;-75
2023/01/15 06:54:41;;;;;;;0.80;0.73;;;9.70;95.80;;;9.97;64.96;97476.88;4967343;28;123857;-77
2023/01/15 06:57:07;;;;;;;1.13;0.80;;;9.90;96.00;;;9.95;65.17;97490.19;4969290;28;119471;-77
2023/01/15 06:59:34;;;;;;;0.90;0.70;;;9.60;96.00;;;9.91;64.99;97494.75;4969520;28;119209;-76
2023/01/15 07:02:01;;;;;;;0.90;0.80;;;9.60;96.10;;;9.89;65.06;97491.56;4998634;28;124039;-74
2023/01/15 07:04:27;;;;;;;1.00;0.70;;;9.50;96.20;;;9.84;65.33;97522.13;4967267;28;123597;-74
2023/01/15 07:06:53;;;;;;;0.90;0.70;;;9.50;96.20;;;9.80;64.91;97521.16;4998595;28;120375;-74
2023/01/15 07:09:20;;;;;;;0.90;0.80;;;9.50;96.10;;;9.73;65.12;97522.53;4967458;28;120018;-74
2023/01/15 07:11:49;;;;;;;0.80;0.70;;;9.40;96.10;;;9.70;64.98;97537.00;4962688;28;124026;-74
2023/01/15 07:14:21;;;;;;;0.80;0.70;;;9.30;96.10;;;9.63;65.12;97545.00;4963529;28;124000;-76
2023/01/15 07:16:49;;;;;;;0.90;0.80;;;9.30;96.00;;;9.58;64.90;97552.69;4967277;28;119477;-75
2023/01/15 07:19:17;;;;;;;0.90;0.73;;;9.20;95.90;;;9.50;64.52;97557.91;4969550;28;118702;-78
2023/01/15 07:21:44;;;;;;;0.80;0.70;;;9.10;95.90;;;9.47;64.56;97563.28;4966689;28;122451;-74
2023/01/15 07:24:11;;;;;;;2.13;0.70;;;9.10;95.90;;;9.44;64.92;97573.03;4964003;28;123898;-75
2023/01/15 07:26:38;;;;;;;0.80;0.80;;;9.20;95.90;;;9.40;64.42;97571.28;4963425;28;119530;-75
2023/01/15 07:29:05;;;;;;;0.80;0.70;;;9.10;95.80;;;9.38;64.42;97570.84;4961495;28;120136;-75
2023/01/15 07:31:31;;;;;;;0.90;0.70;;;9.10;95.80;;;9.35;64.31;97590.78;4963059;28;124126;-75
2023/01/15 07:33:59;;;;;;;0.80;0.70;;;9.90;96.00;;;9.31;64.09;97587.09;4966145;28;123846;-75
2023/01/15 07:36:25;;;;;;;0.80;0.70;;;10.10;95.60;;;9.27;64.22;97593.28;4964642;28;119414;-74
2023/01/15 07:38:52;;;;;;;0.80;0.80;;;8.90;95.60;;;9.26;64.30;97596.34;4966307;28;118322;-76
2023/01/15 07:49:45;;;;;;;0.80;0.70;;;8.80;95.40;;;9.17;63.88;97592.84;4958953;28;119525;-75
2023/01/15 07:52:20;;;;;;;0.80;0.70;;;8.80;95.30;;;9.17;63.60;97601.09;4963520;28;124208;-75
2023/01/15 07:54:48;;;;;;;1.00;0.80;;;8.80;95.30;;;9.17;63.43;97612.13;4964839;28;123050;-74
2023/01/15 07:57:19;;;;;;;0.80;0.70;;;8.80;95.30;;;9.14;63.46;97624.63;4967311;28;120320;-74
2023/01/15 07:59:46;;;;;;;0.80;0.70;;;8.80;95.20;;;9.11;63.51;97633.56;4964495;28;119927;-75
2023/01/15 08:02:12;;;;;;;1.03;0.90;;;8.80;95.20;;;9.12;63.33;97629.66;4947681;28;122807;-75
2023/01/15 08:04:39;;;;;;;0.93;0.73;;;8.80;95.20;;;9.12;63.27;97648.94;4963858;28;123845;-74
2023/01/15 08:07:07;;;;;;;0.80;0.70;;;10.10;95.20;;;9.12;63.35;97642.63;4966961;28;118209;-75
2023/01/15 08:09:35;;;;;;;0.80;0.70;;;8.80;95.20;;;9.12;63.07;97639.88;4966104;28;118951;-75
2023/01/15 08:17:36;;;;;;;2.20;0.80;;;8.70;95.20;;;9.07;63.30;97657.38;4964273;28;119765;-74
2023/01/15 08:20:07;;;;;;;1.20;0.90;;;8.70;95.10;;;9.05;63.28;97673.44;4968325;28;118943;-74
2023/01/15 08:22:34;;;;;;;1.20;0.80;;;8.70;95.10;;;9.03;63.67;97672.97;4964621;28;124531;-75
2023/01/15 08:25:00;;;;;;;0.80;0.80;;;8.70;95.10;;;9.03;63.47;97679.28;4965323;28;123824;-75
2023/01/15 08:27:27;;;;;;;0.80;0.70;;;8.70;95.10;;;9.05;63.82;97662.41;4946372;28;118280;-74
2023/01/15 08:29:55;;;;;;;1.03;0.93;;;8.70;95.20;;;9.08;63.38;97683.81;4966079;28;119011;-75
2023/01/15 08:32:23;;;;;;;0.80;0.80;;;8.70;95.20;;;9.06;62.65;97669.56;4963116;28;124135;-75
2023/01/15 08:34:49;;;;;;;0.90;0.80;;;9.10;95.10;;;8.98;62.67;97690.50;4964260;28;123711;-75
2023/01/15 08:37:16;;;;;;;0.90;0.70;;;8.60;94.80;;;8.93;62.48;97695.38;4979817;28;119878;-74
2023/01/15 08:39:42;;;;;;;0.93;0.80;;;8.50;94.70;;;8.89;62.49;97692.44;4949637;28;119195;-75
2023/01/15 08:42:09;;;;;;;0.90;0.80;;;8.50;94.70;;;8.85;62.17;97686.00;4957853;28;124067;-75
2023/01/15 08:44:35;;;;;;;1.30;0.90;;;8.50;94.80;;;8.84;62.95;97687.94;4967026;28;123864;-75
2023/01/15 08:47:02;;;;;;;1.40;1.00;;;8.50;94.80;;;8.85;62.83;97703.31;4963864;28;120144;-75
2023/01/15 08:49:29;;;;;;;0.93;0.83;;;8.50;94.80;;;8.84;62.77;97718.25;4962402;28;119839;-75
2023/01/15 08:51:55;;;;;;;0.90;0.80;;;8.50;95.10;;;8.83;62.68;97722.13;4968049;28;123380;-74
2023/01/15 08:54:25;;;;;;;1.00;0.80;;;8.40;94.80;;;8.83;62.74;97732.31;4965452;28;124000;-74
2023/01/15 08:56:51;;;;;;;0.90;0.80;;;8.40;94.80;;;8.80;62.76;97728.28;4953577;28;119895;-75
2023/01/15 08:59:18;;;;;;;0.80;0.70;;;6.30;94.00;;;8.80;62.95;97733.78;4966616;28;120049;-75
2023/01/15 09:01:45;;;;;;;0.90;0.80;;;8.40;94.80;;;8.83;62.76;97746.91;4961123;28;123339;-74
2023/01/15 09:04:16;;;;;;;0.90;0.80;;;8.40;94.90;;;8.85;62.56;97750.16;4963533;28;123797;-75
2023/01/15 09:06:43;;;;;;;0.90;0.80;;;8.40;94.80;;;8.88;62.95;97753.38;4947926;28;118286;-75
2023/01/15 09:09:11;;;;;;;1.43;1.00;;;8.50;94.90;;;8.89;62.91;97757.75;4961973;28;119251;-74
2023/01/15 09:11:40;;;;;;;1.93;0.90;;;8.50;94.90;;;8.93;62.55;97756.78;4968251;28;124429;-75
2023/01/15 09:14:12;;;;;;;1.00;0.80;;;8.50;94.90;;;9.01;62.64;97755.16;4966204;28;123807;-75
2023/01/15 09:16:40;;;;;;;1.07;0.77;;;8.60;94.90;;;9.05;62.66;97750.59;4966794;28;119052;-76
2023/01/15 09:19:07;;;;;;;0.90;0.80;;;8.60;94.90;;;9.11;62.54;97753.97;4969726;28;119390;-78
2023/01/15 09:21:33;;;;;;;1.00;0.90;;;7.00;94.20;;;9.16;62.84;97757.38;4969054;28;124700;-75
2023/01/15 09:24:01;;;;;;;1.03;0.87;;;8.70;94.90;;;9.24;62.61;97770.31;4965909;28;123706;-74
2023/01/15 09:26:36;;;;;;;1.23;0.90;;;8.80;94.90;;;9.30;62.38;97770.94;4965206;28;119392;-75
2023/01/15 09:29:04;;;;;;;0.90;0.70;;;8.80;94.80;;;9.36;62.09;97790.88;4965054;28;118956;-75
2023/01/15 09:31:31;;;;;;;0.93;0.80;;;8.80;94.80;;;9.41;61.85;97801.72;4963552;28;124609;-74
2023/01/15 09:33:58;;;;;;;0.90;0.80;;;8.90;94.90;;;9.46;62.08;97807.06;4960550;28;123887;-75
2023/01/15 09:36:31;;;;;;;1.10;0.83;;;8.90;94.80;;;9.51;62.01;97815.16;4957325;28;120543;-74
2023/01/15 09:38:59;;;;;;;0.80;0.80;;;9.00;94.80;;;9.51;62.17;97824.22;4969631;28;119740;-74
2023/01/15 09:42:06;;;;;;;0.97;0.87;;;9.00;94.70;;;9.55;61.67;97818.88;4968257;28;124194;-75
2023/01/15 09:45:00;;;;;;;1.00;0.90;;;9.10;94.70;;;9.57;61.84;97813.84;4971613;28;124800;-74
2023/01/15 09:47:35;;;;;;;0.93;0.77;;;9.10;94.70;;;9.60;61.54;97810.41;4954334;28;118824;-74
2023/01/15 09:50:32;;;;;;;0.90;0.70;;;9.10;94.60;;;9.64;61.76;97825.13;4982145;28;118861;-75
2023/01/15 09:53:19;;;;;;;1.10;0.90;;;9.20;94.70;;;9.65;61.36;97823.22;4958440;28;124129;-75
2023/01/15 09:55:49;;;;;;;1.33;0.83;;;9.10;94.50;;;9.59;60.73;97833.63;4964655;28;124167;-74
2023/01/15 09:58:26;;;;;;;0.90;0.80;;;9.10;94.20;;;9.53;60.39;97840.44;4962413;28;119323;-75
2023/01/15 10:00:53;;;;;;;1.00;0.73;;;9.30;94.20;;;9.43;60.41;97832.50;4966784;28;119782;-75
2023/01/15 10:03:50;;;;;;;1.10;0.90;;;9.00;93.90;;;9.34;60.61;97854.59;4967350;28;123929;-75
2023/01/15 10:06:26;;;;;;;1.00;0.80;;;8.90;93.80;;;9.25;60.45;97865.63;4999403;28;124206;-75
2023/01/15 10:09:12;;;;;;;1.27;0.70;;;8.90;93.70;;;9.17;60.43;97871.16;4963079;28;119222;-75
2023/01/15 10:15:25;;;;;;;1.37;1.00;;;8.70;93.60;;;8.99;60.60;97851.88;4969174;28;123974;-75
2023/01/15 10:17:56;;;;;;;0.90;0.80;;;8.70;93.60;;;8.97;60.83;97861.59;4999421;28;123425;-75
2023/01/15 10:21:30;;;;;;;0.80;0.70;;;8.60;93.70;;;8.97;60.81;97864.38;4967889;28;119221;-75
2023/01/15 10:24:38;;;;;;;0.87;0.80;;;8.60;93.70;;;8.95;60.68;97872.16;4961688;28;118197;-75
2023/01/15 10:27:28;;;;;;;0.90;0.70;;;8.60;93.70;;;8.91;60.84;97882.19;4961854;28;124572;-77
2023/01/15 10:30:15;;;;;;;0.93;0.83;;;9.00;93.90;;;8.90;61.18;97886.09;4968323;28;124208;-75
2023/01/15 10:32:53;;;;;;;0.93;0.73;;;8.50;93.80;;;8.82;61.02;97884.97;4965743;28;119394;-75
2023/01/15 10:35:41;;;;;;;1.00;0.80;;;8.50;93.70;;;8.82;61.47;97895.97;4967466;28;119980;-75
2023/01/15 10:38:42;;;;;;;1.17;0.90;;;8.50;93.90;;;8.82;61.61;97901.47;4965659;28;124049;-75
2023/01/15 10:41:32;;;;;;;0.80;0.70;;;8.50;94.00;;;8.83;61.54;97903.09;4964203;28;124431;-75
2023/01/15 10:44:01;;;;;;;0.80;0.70;;;8.40;94.00;;;8.88;61.90;97896.63;4968490;28;118709;-75
2023/01/15 10:46:36;;;;;;;0.90;0.70;;;8.60;94.30;;;8.94;61.61;97903.59;5001630;28;118728;-75
2023/01/15 10:49:12;;;;;;;0.90;0.80;;;8.50;94.20;;;8.95;61.53;97902.47;4965568;28;124507;-75
2023/01/15 10:52:03;;;;;;;0.80;0.70;;;8.50;94.20;;;8.92;61.33;97908.59;4969566;28;123684;-75
2023/01/15 10:54:40;;;;;;;1.00;0.80;;;8.50;94.10;;;8.85;61.67;97920.91;4949166;28;118229;-75
2023/01/15 10:57:42;;;;;;;0.80;0.77;;;8.40;94.10;;;8.80;61.35;97948.63;4965134;28;118012;-75
2023/01/15 11:00:10;;;;;;;0.90;0.80;;;8.40;94.00;;;8.73;61.33;97945.53;4963631;28;124003;-75
2023/01/15 11:02:48;;;;;;;1.00;0.80;;;8.40;93.90;;;8.71;60.88;97928.53;4968754;28;123896;-75
2023/01/15 11:05:18;;;;;;;0.80;0.80;;;8.30;93.80;;;8.59;60.78;97925.56;4951896;28;119695;-75
2023/01/15 11:07:47;;;;;;;0.80;0.70;;;8.20;93.60;;;8.40;60.38;97923.91;4962530;28;119673;-74
2023/01/15 11:10:20;;;;;;;1.27;0.90;;;8.10;93.30;;;8.26;60.17;97925.94;4985017;28;123826;-75
2023/01/15 11:19:41;;;;;;;0.87;0.73;;;7.60;93.10;;;7.77;60.49;97966.34;4958552;28;119218;-75